Time;durP1;ratioP1;P1;durP2;ratioP2;P2;SDS_P1;SDS_P2;PMS_P1;PMS_P2;Temp;Humidity;BMP_temperature;BMP_pressure;BME280_temperature;BME280_humidity;BME280_pressure;Samples;Min_cycle;Max_cycle;Signal;HPM_P1;HPM_P2
2023/04/25 00:01:46;;;;;;;;;;;;;;;;;;6236811;22;19968;-83
2023/04/25 00:04:12;;;;;;;;;;;;;;;;;;6211844;22;20182;-83
2023/04/25 00:06:41;;;;;;;;;;;;;;;;;;6211176;22;20393;-84
2023/04/25 00:09:08;;;;;;;;;;;;;;;;;;6213461;22;20290;-83
2023/04/25 00:11:34;;;;;;;;;;;;;;;;;;6212877;22;19926;-84
2023/04/25 00:14:02;;;;;;;;;;;;;;;;;;6211800;22;19924;-84
2023/04/25 00:16:28;;;;;;;;;;;;;;;;;;6239148;22;19924;-83
2023/04/25 00:18:54;;;;;;;;;;;;;;;;;;6237082;22;20649;-83
2023/04/25 00:21:20;;;;;;;;;;;;;;;;;;6236461;22;19923;-83
2023/04/25 00:23:46;;;;;;;;;;;;;;;;;;6215501;22;20002;-83
2023/04/25 00:26:20;;;;;;;;;;;;;;;;;;6234485;22;19919;-83
2023/04/25 00:28:48;;;;;;;;;;;;;;;;;;6216039;22;19990;-83
2023/04/25 00:31:14;;;;;;;;;;;;;;;;;;6236809;22;20061;-83
2023/04/25 00:33:40;;;;;;;;;;;;;;;;;;6265902;22;19958;-83
2023/04/25 00:36:06;;;;;;;;;;;;;;;;;;6236561;22;20240;-83
2023/04/25 00:38:32;;;;;;;;;;;;;;;;;;6213582;22;19919;-83
2023/04/25 00:40:58;;;;;;;;;;;;;;;;;;6238282;22;19916;-83
2023/04/25 00:43:24;;;;;;;;;;;;;;;;;;6214124;22;19976;-83
2023/04/25 00:45:50;;;;;;;;;;;;;;;;;;6264050;22;19923;-83
2023/04/25 00:48:16;;;;;;;;;;;;;;;;;;6236764;22;20483;-83
2023/04/25 00:50:42;;;;;;;;;;;;;;;;;;6239296;22;19915;-83
2023/04/25 00:53:09;;;;;;;;;;;;;;;;;;6214614;22;19919;-83
2023/04/25 00:55:36;;;;;;;;;;;;;;;;;;6238269;22;20415;-83
2023/04/25 00:58:11;;;;;;;;;;;;;;;;;;6236480;22;19920;-83
2023/04/25 01:00:36;;;;;;;;;;;;;;;;;;6238707;22;19927;-83
2023/04/25 01:03:03;;;;;;;;;;;;;;;;;;6212218;22;19919;-83
2023/04/25 01:05:29;;;;;;;;;;;;;;;;;;6213473;22;19920;-83
2023/04/25 01:07:58;;;;;;;;;;;;;;;;;;6238869;22;19927;-83
2023/04/25 01:10:24;;;;;;;;;;;;;;;;;;6213146;22;19919;-83
2023/04/25 01:12:50;;;;;;;;;;;;;;;;;;6238576;22;19923;-83
2023/04/25 01:15:18;;;;;;;;;;;;;;;;;;6237807;22;20362;-83
2023/04/25 01:17:44;;;;;;;;;;;;;;;;;;6240756;22;19951;-83
2023/04/25 01:20:10;;;;;;;;;;;;;;;;;;6238081;22;19923;-83
2023/04/25 01:22:36;;;;;;;;;;;;;;;;;;6212917;22;20290;-83
2023/04/25 01:25:03;;;;;;;;;;;;;;;;;;6237776;22;19953;-83
2023/04/25 01:27:29;;;;;;;;;;;;;;;;;;6239129;22;20217;-83
2023/04/25 01:29:55;;;;;;;;;;;;;;;;;;6214520;22;20333;-83
2023/04/25 01:32:24;;;;;;;;;;;;;;;;;;6214634;22;19915;-83
2023/04/25 01:34:50;;;;;;;;;;;;;;;;;;6236324;22;19924;-83
2023/04/25 01:37:16;;;;;;;;;;;;;;;;;;6239396;22;20690;-83
2023/04/25 01:39:42;;;;;;;;;;;;;;;;;;6215147;22;19947;-83
2023/04/25 01:42:08;;;;;;;;;;;;;;;;;;6214249;22;19926;-84
2023/04/25 01:44:42;;;;;;;;;;;;;;;;;;6240957;22;19947;-83
2023/04/25 01:47:08;;;;;;;;;;;;;;;;;;6238918;22;19927;-83
2023/04/25 01:49:34;;;;;;;;;;;;;;;;;;6240100;22;19923;-83
2023/04/25 01:51:59;;;;;;;;;;;;;;;;;;6211621;22;19925;-83
2023/04/25 01:54:25;;;;;;;;;;;;;;;;;;6213785;22;20034;-83
2023/04/25 01:56:51;;;;;;;;;;;;;;;;;;6266014;22;19931;-84
2023/04/25 01:59:25;;;;;;;;;;;;;;;;;;6235913;22;19957;-84
2023/04/25 02:01:51;;;;;;;;;;;;;;;;;;6238772;22;20232;-83
2023/04/25 02:04:17;;;;;;;;;;;;;;;;;;6211144;22;19919;-84
2023/04/25 02:06:43;;;;;;;;;;;;;;;;;;6213169;22;19919;-84
2023/04/25 02:09:09;;;;;;;;;;;;;;;;;;6235803;22;20248;-84
2023/04/25 02:11:35;;;;;;;;;;;;;;;;;;6238871;22;19919;-84
2023/04/25 02:14:01;;;;;;;;;;;;;;;;;;6212759;22;19915;-83
2023/04/25 02:16:30;;;;;;;;;;;;;;;;;;6209229;22;19994;-83
2023/04/25 02:18:56;;;;;;;;;;;;;;;;;;6234427;22;19919;-83
2023/04/25 02:21:22;;;;;;;;;;;;;;;;;;6212174;22;20271;-83
2023/04/25 02:23:49;;;;;;;;;;;;;;;;;;6211670;22;19942;-83
2023/04/25 02:26:15;;;;;;;;;;;;;;;;;;6233091;22;19919;-83
2023/04/25 02:28:41;;;;;;;;;;;;;;;;;;6235715;22;20157;-83
2023/04/25 02:31:07;;;;;;;;;;;;;;;;;;6208807;22;19996;-83
2023/04/25 02:33:33;;;;;;;;;;;;;;;;;;6237808;22;19941;-83
2023/04/25 02:35:59;;;;;;;;;;;;;;;;;;6233721;22;19919;-83
2023/04/25 02:38:25;;;;;;;;;;;;;;;;;;6237356;22;19922;-83
2023/04/25 02:40:51;;;;;;;;;;;;;;;;;;6211049;22;19926;-83
2023/04/25 02:43:17;;;;;;;;;;;;;;;;;;6263730;22;19969;-83
2023/04/25 02:45:43;;;;;;;;;;;;;;;;;;6236766;22;19919;-83
2023/04/25 02:48:09;;;;;;;;;;;;;;;;;;6208792;22;19997;-83
2023/04/25 02:50:35;;;;;;;;;;;;;;;;;;6212771;22;19919;-83
2023/04/25 02:53:01;;;;;;;;;;;;;;;;;;6210691;22;19919;-83
2023/04/25 02:55:27;;;;;;;;;;;;;;;;;;6213092;22;19937;-83
2023/04/25 02:57:55;;;;;;;;;;;;;;;;;;6238235;22;19916;-83
2023/04/25 03:00:24;;;;;;;;;;;;;;;;;;6213095;22;19938;-83
2023/04/25 03:02:50;;;;;;;;;;;;;;;;;;6238841;22;19930;-84
2023/04/25 03:05:17;;;;;;;;;;;;;;;;;;6233606;22;20255;-83
2023/04/25 03:07:45;;;;;;;;;;;;;;;;;;6212005;22;19918;-83
2023/04/25 03:10:11;;;;;;;;;;;;;;;;;;6233481;22;19977;-83
2023/04/25 03:12:37;;;;;;;;;;;;;;;;;;6214062;22;20408;-83
2023/04/25 03:15:03;;;;;;;;;;;;;;;;;;6232716;22;20003;-83
2023/04/25 03:17:29;;;;;;;;;;;;;;;;;;6214198;22;20254;-83
2023/04/25 03:19:58;;;;;;;;;;;;;;;;;;6213531;22;19926;-83
2023/04/25 03:22:24;;;;;;;;;;;;;;;;;;6213085;22;20240;-83
2023/04/25 03:24:50;;;;;;;;;;;;;;;;;;6240320;22;19919;-83
2023/04/25 03:27:23;;;;;;;;;;;;;;;;;;6212933;22;19925;-83
2023/04/25 03:29:49;;;;;;;;;;;;;;;;;;6265592;22;19919;-83
2023/04/25 03:35:26;;;;;;;;;;;;;;;;;;6265259;22;20378;-83
2023/04/25 03:37:52;;;;;;;;;;;;;;;;;;6240825;22;19972;-83
2023/04/25 03:40:18;;;;;;;;;;;;;;;;;;6233758;22;19994;-83
2023/04/25 03:42:44;;;;;;;;;;;;;;;;;;6211545;22;20314;-83
2023/04/25 03:45:13;;;;;;;;;;;;;;;;;;6210677;22;19957;-83
2023/04/25 03:47:39;;;;;;;;;;;;;;;;;;6239194;22;19915;-84
2023/04/25 03:50:05;;;;;;;;;;;;;;;;;;6237195;22;20001;-84
2023/04/25 03:52:31;;;;;;;;;;;;;;;;;;6215313;22;19951;-83
2023/04/25 03:54:57;;;;;;;;;;;;;;;;;;6212885;22;20403;-84
2023/04/25 03:57:23;;;;;;;;;;;;;;;;;;6213024;22;19926;-84
2023/04/25 03:59:49;;;;;;;;;;;;;;;;;;6239709;22;19922;-84
2023/04/25 04:02:15;;;;;;;;;;;;;;;;;;6213526;22;20251;-84
2023/04/25 04:04:43;;;;;;;;;;;;;;;;;;6210586;22;19919;-84
2023/04/25 04:07:10;;;;;;;;;;;;;;;;;;6211059;22;19970;-84
2023/04/25 04:09:36;;;;;;;;;;;;;;;;;;6239532;22;19926;-84
2023/04/25 04:12:02;;;;;;;;;;;;;;;;;;6238273;22;19919;-84
2023/04/25 04:14:28;;;;;;;;;;;;;;;;;;6240664;22;20225;-84
2023/04/25 04:16:54;;;;;;;;;;;;;;;;;;6211914;22;20005;-84
2023/04/25 04:19:20;;;;;;;;;;;;;;;;;;6209308;22;20318;-84
2023/04/25 04:21:52;;;;;;;;;;;;;;;;;;6264840;22;19950;-84
2023/04/25 04:24:37;;;;;;;;;;;;;;;;;;6207118;22;19973;-84
2023/04/25 04:27:03;;;;;;;;;;;;;;;;;;6211224;22;19919;-84
2023/04/25 04:29:29;;;;;;;;;;;;;;;;;;6213003;22;19930;-84
2023/04/25 04:32:00;;;;;;;;;;;;;;;;;;6210794;22;20411;-84
2023/04/25 04:34:27;;;;;;;;;;;;;;;;;;6211905;22;20438;-84
2023/04/25 04:36:53;;;;;;;;;;;;;;;;;;6238486;22;19926;-84
2023/04/25 04:39:19;;;;;;;;;;;;;;;;;;6211595;22;19919;-84
2023/04/25 04:41:45;;;;;;;;;;;;;;;;;;6211259;22;19919;-84
2023/04/25 04:44:11;;;;;;;;;;;;;;;;;;6265498;22;19919;-84
2023/04/25 04:46:41;;;;;;;;;;;;;;;;;;6265444;22;20399;-84
2023/04/25 04:49:07;;;;;;;;;;;;;;;;;;6235750;22;19930;-84
2023/04/25 04:51:36;;;;;;;;;;;;;;;;;;6211929;22;19926;-84
2023/04/25 04:54:02;;;;;;;;;;;;;;;;;;6211616;22;19992;-84
2023/04/25 04:56:34;;;;;;;;;;;;;;;;;;6214806;22;19919;-84
2023/04/25 04:59:02;;;;;;;;;;;;;;;;;;6211112;22;20408;-84
2023/04/25 05:01:46;;;;;;;;;;;;;;;;;;6235629;22;20339;-84
2023/04/25 05:04:12;;;;;;;;;;;;;;;;;;6235055;22;19942;-84
2023/04/25 05:06:38;;;;;;;;;;;;;;;;;;6238781;22;19947;-84
2023/04/25 05:09:04;;;;;;;;;;;;;;;;;;6208904;22;19966;-84
2023/04/25 05:11:30;;;;;;;;;;;;;;;;;;6211359;22;20360;-84
2023/04/25 05:13:56;;;;;;;;;;;;;;;;;;6236484;22;19930;-84
2023/04/25 05:16:22;;;;;;;;;;;;;;;;;;6236825;22;19923;-83
2023/04/25 05:18:49;;;;;;;;;;;;;;;;;;6210737;22;20248;-84
2023/04/25 05:21:15;;;;;;;;;;;;;;;;;;6234491;22;19915;-84
2023/04/25 05:23:41;;;;;;;;;;;;;;;;;;6237104;22;20347;-84
2023/04/25 05:26:13;;;;;;;;;;;;;;;;;;6234286;22;20018;-84
2023/04/25 05:28:39;;;;;;;;;;;;;;;;;;6237978;22;19929;-84
2023/04/25 05:31:05;;;;;;;;;;;;;;;;;;6209704;22;19915;-84
2023/04/25 05:33:43;;;;;;;;;;;;;;;;;;6212923;22;19958;-84
2023/04/25 05:36:09;;;;;;;;;;;;;;;;;;6207330;22;20259;-84
2023/04/25 05:38:35;;;;;;;;;;;;;;;;;;6212777;22;19994;-84
2023/04/25 05:41:01;;;;;;;;;;;;;;;;;;6234574;22;19919;-84
2023/04/25 05:43:27;;;;;;;;;;;;;;;;;;6211170;22;19964;-84
2023/04/25 05:45:53;;;;;;;;;;;;;;;;;;6210586;22;20366;-84
2023/04/25 05:48:19;;;;;;;;;;;;;;;;;;6209199;22;20046;-84
2023/04/25 05:50:45;;;;;;;;;;;;;;;;;;6211646;22;20236;-84
2023/04/25 05:53:11;;;;;;;;;;;;;;;;;;6260573;22;19923;-84
2023/04/25 05:55:38;;;;;;;;;;;;;;;;;;6235918;22;19958;-84
2023/04/25 05:58:04;;;;;;;;;;;;;;;;;;6206082;22;19989;-84
2023/04/25 06:00:30;;;;;;;;;;;;;;;;;;6236844;22;19931;-84
2023/04/25 06:02:59;;;;;;;;;;;;;;;;;;6211885;22;19946;-84
2023/04/25 06:05:25;;;;;;;;;;;;;;;;;;6233008;22;19919;-84
2023/04/25 06:07:51;;;;;;;;;;;;;;;;;;6237551;22;19915;-85
2023/04/25 06:10:18;;;;;;;;;;;;;;;;;;6210685;22;19927;-84
2023/04/25 06:12:44;;;;;;;;;;;;;;;;;;6236513;22;20350;-85
2023/04/25 06:15:10;;;;;;;;;;;;;;;;;;6207245;22;20035;-84
2023/04/25 06:17:36;;;;;;;;;;;;;;;;;;6210532;22;19919;-84
2023/04/25 06:20:03;;;;;;;;;;;;;;;;;;6208015;22;19915;-84
2023/04/25 06:22:29;;;;;;;;;;;;;;;;;;6237854;22;19945;-84
2023/04/25 06:24:59;;;;;;;;;;;;;;;;;;6233450;22;19919;-84
2023/04/25 06:27:26;;;;;;;;;;;;;;;;;;6236865;22;19919;-84
2023/04/25 06:29:51;;;;;;;;;;;;;;;;;;6209996;22;19923;-84
2023/04/25 06:32:18;;;;;;;;;;;;;;;;;;6208224;22;20057;-84
2023/04/25 06:34:44;;;;;;;;;;;;;;;;;;6209166;22;19915;-84
2023/04/25 06:37:10;;;;;;;;;;;;;;;;;;6237708;22;20000;-84
2023/04/25 06:39:36;;;;;;;;;;;;;;;;;;6212042;22;19926;-84
2023/04/25 06:42:02;;;;;;;;;;;;;;;;;;6211172;22;20370;-84
2023/04/25 06:44:29;;;;;;;;;;;;;;;;;;6212768;22;19919;-84
2023/04/25 06:46:59;;;;;;;;;;;;;;;;;;6239028;22;20272;-85
2023/04/25 06:49:25;;;;;;;;;;;;;;;;;;6210283;22;20279;-85
2023/04/25 06:51:51;;;;;;;;;;;;;;;;;;6262203;22;20141;-84
2023/04/25 06:54:17;;;;;;;;;;;;;;;;;;6231635;22;19919;-84
2023/04/25 06:56:43;;;;;;;;;;;;;;;;;;6211859;22;19926;-85
2023/04/25 06:59:09;;;;;;;;;;;;;;;;;;6236869;22;19919;-85
2023/04/25 07:01:35;;;;;;;;;;;;;;;;;;6236512;22;20299;-84
2023/04/25 07:04:01;;;;;;;;;;;;;;;;;;6207873;22;19919;-83
2023/04/25 07:06:30;;;;;;;;;;;;;;;;;;6210284;22;19919;-84
2023/04/25 07:08:56;;;;;;;;;;;;;;;;;;6211136;22;19919;-84
2023/04/25 07:11:22;;;;;;;;;;;;;;;;;;6238599;22;20269;-84
2023/04/25 07:13:49;;;;;;;;;;;;;;;;;;6213276;22;20333;-84
2023/04/25 07:16:15;;;;;;;;;;;;;;;;;;6237752;22;20333;-84
2023/04/25 07:18:40;;;;;;;;;;;;;;;;;;6241054;22;20324;-84
2023/04/25 07:21:06;;;;;;;;;;;;;;;;;;6231347;22;19970;-85
2023/04/25 07:23:32;;;;;;;;;;;;;;;;;;6212114;22;20286;-85
2023/04/25 07:25:58;;;;;;;;;;;;;;;;;;6210345;22;19923;-85
2023/04/25 07:28:24;;;;;;;;;;;;;;;;;;6237984;22;19972;-85
2023/04/25 07:30:50;;;;;;;;;;;;;;;;;;6238327;22;19965;-85
2023/04/25 07:33:16;;;;;;;;;;;;;;;;;;6261680;22;19919;-85
2023/04/25 07:35:42;;;;;;;;;;;;;;;;;;6210862;22;19927;-85
2023/04/25 07:38:10;;;;;;;;;;;;;;;;;;6234328;22;19919;-85
2023/04/25 07:40:39;;;;;;;;;;;;;;;;;;6240004;22;19922;-85
2023/04/25 07:43:05;;;;;;;;;;;;;;;;;;6209667;22;20251;-85
2023/04/25 07:45:34;;;;;;;;;;;;;;;;;;6212249;22;19927;-85
2023/04/25 07:48:09;;;;;;;;;;;;;;;;;;6211695;22;19923;-85
2023/04/25 07:56:32;;;;;;;;;;;;;;;;;;6265072;22;19923;-90
2023/04/25 07:58:58;;;;;;;;;;;;;;;;;;6210275;22;19990;-87
2023/04/25 08:01:24;;;;;;;;;;;;;;;;;;6237500;22;20370;-87
2023/04/25 08:03:50;;;;;;;;;;;;;;;;;;6211721;22;20216;-86
2023/04/25 08:06:16;;;;;;;;;;;;;;;;;;6210982;22;20406;-87
2023/04/25 08:08:42;;;;;;;;;;;;;;;;;;6211644;22;20442;-87
2023/04/25 08:11:08;;;;;;;;;;;;;;;;;;6209402;22;19961;-88
2023/04/25 08:13:34;;;;;;;;;;;;;;;;;;6213634;22;20200;-88
2023/04/25 08:16:00;;;;;;;;;;;;;;;;;;6211635;22;19926;-87
2023/04/25 08:18:26;;;;;;;;;;;;;;;;;;6231878;22;20022;-88
2023/04/25 08:20:52;;;;;;;;;;;;;;;;;;6210545;22;20376;-87
2023/04/25 08:23:18;;;;;;;;;;;;;;;;;;6210382;22;19999;-88
2023/04/25 08:25:44;;;;;;;;;;;;;;;;;;6212157;22;19955;-87
2023/04/25 08:28:10;;;;;;;;;;;;;;;;;;6207234;22;19919;-88
2023/04/25 08:30:36;;;;;;;;;;;;;;;;;;6209995;22;19919;-87
2023/04/25 08:33:02;;;;;;;;;;;;;;;;;;6210550;22;19915;-87
2023/04/25 08:35:28;;;;;;;;;;;;;;;;;;6207780;22;19919;-87
2023/04/25 08:37:54;;;;;;;;;;;;;;;;;;6237700;22;20357;-87
2023/04/25 08:40:25;;;;;;;;;;;;;;;;;;6235639;22;20245;-88
2023/04/25 08:42:51;;;;;;;;;;;;;;;;;;6239342;22;19926;-87
2023/04/25 08:45:17;;;;;;;;;;;;;;;;;;6236243;22;19919;-88
2023/04/25 08:47:43;;;;;;;;;;;;;;;;;;6215074;22;19985;-87
2023/04/25 08:50:09;;;;;;;;;;;;;;;;;;6209595;22;20343;-87
2023/04/25 08:52:35;;;;;;;;;;;;;;;;;;6236075;22;19926;-88
2023/04/25 08:55:01;;;;;;;;;;;;;;;;;;6232947;22;20344;-88
2023/04/25 08:57:28;;;;;;;;;;;;;;;;;;6236624;22;20296;-88
2023/04/25 08:59:54;;;;;;;;;;;;;;;;;;6236870;22;19924;-87
2023/04/25 09:02:20;;;;;;;;;;;;;;;;;;6258277;22;19919;-88
2023/04/25 09:04:46;;;;;;;;;;;;;;;;;;6237063;22;19923;-88
2023/04/25 09:07:12;;;;;;;;;;;;;;;;;;6233925;22;19919;-87
2023/04/25 09:09:39;;;;;;;;;;;;;;;;;;6264778;22;19934;-88
2023/04/25 09:12:05;;;;;;;;;;;;;;;;;;6206903;22;20242;-88
2023/04/25 09:14:31;;;;;;;;;;;;;;;;;;6237676;22;19931;-88
2023/04/25 09:16:57;;;;;;;;;;;;;;;;;;6234830;22;19922;-88
2023/04/25 09:19:23;;;;;;;;;;;;;;;;;;6235404;22;19919;-88
2023/04/25 09:21:49;;;;;;;;;;;;;;;;;;6214723;22;20343;-87
2023/04/25 09:24:15;;;;;;;;;;;;;;;;;;6236978;22;19919;-87
2023/04/25 09:26:41;;;;;;;;;;;;;;;;;;6212633;22;20310;-87
2023/04/25 09:29:07;;;;;;;;;;;;;;;;;;6233264;22;19930;-88
2023/04/25 09:31:33;;;;;;;;;;;;;;;;;;6240592;22;19919;-87
2023/04/25 09:33:59;;;;;;;;;;;;;;;;;;6212344;22;19996;-87
2023/04/25 09:36:25;;;;;;;;;;;;;;;;;;6212080;22;19926;-87
2023/04/25 09:38:51;;;;;;;;;;;;;;;;;;6212559;22;20252;-87
2023/04/25 09:41:17;;;;;;;;;;;;;;;;;;6209279;22;19942;-87
2023/04/25 09:43:43;;;;;;;;;;;;;;;;;;6204099;22;19947;-87
2023/04/25 09:46:13;;;;;;;;;;;;;;;;;;6212525;22;20025;-87
2023/04/25 09:48:39;;;;;;;;;;;;;;;;;;6241628;22;19919;-89
2023/04/25 09:51:08;;;;;;;;;;;;;;;;;;6209589;22;19970;-89
2023/04/25 09:53:35;;;;;;;;;;;;;;;;;;6239068;22;19915;-88
2023/04/25 09:56:01;;;;;;;;;;;;;;;;;;6209712;22;19927;-87
2023/04/25 09:58:27;;;;;;;;;;;;;;;;;;6213913;22;19919;-88
2023/04/25 10:00:53;;;;;;;;;;;;;;;;;;6235743;22;19920;-87
2023/04/25 10:03:19;;;;;;;;;;;;;;;;;;6235885;22;19982;-87
2023/04/25 10:05:45;;;;;;;;;;;;;;;;;;6213790;22;19919;-88
2023/04/25 10:08:11;;;;;;;;;;;;;;;;;;6212414;22;19942;-89
2023/04/25 10:10:38;;;;;;;;;;;;;;;;;;6211031;22;20358;-88
2023/04/25 10:13:04;;;;;;;;;;;;;;;;;;6207885;22;20688;-88
2023/04/25 10:15:30;;;;;;;;;;;;;;;;;;6212237;22;20048;-89
2023/04/25 10:18:15;;;;;;;;;;;;;;;;;;6208416;22;19915;-89
2023/04/25 10:20:41;;;;;;;;;;;;;;;;;;6216238;22;19923;-90
2023/04/25 10:23:07;;;;;;;;;;;;;;;;;;6239881;22;20358;-92
2023/04/25 10:28:28;;;;;;;;;;;;;;;;;;6239596;22;20134;-91
2023/04/25 10:33:57;;;;;;;;;;;;;;;;;;6275689;22;20332;-91
2023/04/25 10:39:27;;;;;;;;;;;;;;;;;;6277179;22;19914;-89
2023/04/25 10:41:53;;;;;;;;;;;;;;;;;;6242462;22;19915;-89
2023/04/25 10:44:19;;;;;;;;;;;;;;;;;;6213745;22;19969;-88
2023/04/25 10:46:48;;;;;;;;;;;;;;;;;;6241049;22;19994;-89
2023/04/25 10:49:14;;;;;;;;;;;;;;;;;;6209909;22;19930;-89
2023/04/25 10:51:41;;;;;;;;;;;;;;;;;;6241070;22;20261;-88
2023/04/25 10:54:07;;;;;;;;;;;;;;;;;;6213004;22;20205;-87
2023/04/25 10:56:33;;;;;;;;;;;;;;;;;;6214843;22;19927;-89
2023/04/25 10:58:59;;;;;;;;;;;;;;;;;;6236224;22;19925;-87
2023/04/25 11:01:25;;;;;;;;;;;;;;;;;;6211961;22;19973;-89
2023/04/25 11:03:54;;;;;;;;;;;;;;;;;;6214773;22;19919;-88
2023/04/25 11:06:22;;;;;;;;;;;;;;;;;;6211718;22;19966;-88
2023/04/25 11:08:49;;;;;;;;;;;;;;;;;;6215308;22;19923;-88
2023/04/25 11:11:15;;;;;;;;;;;;;;;;;;6234258;22;20022;-88
2023/04/25 11:13:41;;;;;;;;;;;;;;;;;;6214572;22;19923;-89
2023/04/25 11:16:10;;;;;;;;;;;;;;;;;;6212899;22;19926;-89
2023/04/25 11:18:38;;;;;;;;;;;;;;;;;;6213324;22;19915;-88
2023/04/25 11:23:56;;;;;;;;;;;;;;;;;;6225301;22;19919;-89
2023/04/25 11:26:22;;;;;;;;;;;;;;;;;;6211804;22;19959;-88
2023/04/25 11:28:48;;;;;;;;;;;;;;;;;;6240998;22;19920;-88
2023/04/25 11:31:14;;;;;;;;;;;;;;;;;;6213040;22;19915;-88
2023/04/25 11:33:40;;;;;;;;;;;;;;;;;;6239410;22;19919;-87
2023/04/25 11:36:06;;;;;;;;;;;;;;;;;;6213975;22;20426;-88
2023/04/25 11:38:32;;;;;;;;;;;;;;;;;;6215999;22;19919;-88
2023/04/25 11:40:58;;;;;;;;;;;;;;;;;;6212502;22;19923;-87
2023/04/25 11:43:24;;;;;;;;;;;;;;;;;;6240787;22;19915;-88
2023/04/25 11:45:51;;;;;;;;;;;;;;;;;;6241763;22;19923;-88
2023/04/25 11:48:23;;;;;;;;;;;;;;;;;;6216231;22;19947;-91
2023/04/25 11:53:37;;;;;;;;;;;;;;;;;;6242975;22;19919;-88
2023/04/25 11:56:05;;;;;;;;;;;;;;;;;;6214279;22;19920;-89
2023/04/25 11:58:40;;;;;;;;;;;;;;;;;;6219840;22;19919;-89
2023/04/25 12:01:19;;;;;;;;;;;;;;;;;;6214146;22;19977;-88
2023/04/25 12:09:32;;;;;;;;;;;;;;;;;;6237895;22;20158;-84
2023/04/25 12:12:02;;;;;;;;;;;;;;;;;;6234922;23;20367;-85
2023/04/25 12:14:34;;;;;;;;;;;;;;;;;;6236429;23;19920;-84
2023/04/25 12:17:09;;;;;;;;;;;;;;;;;;6211707;23;19926;-85
2023/04/25 12:19:35;;;;;;;;;;;;;;;;;;6211303;23;20351;-85
2023/04/25 12:25:10;;;;;;;;;;;;;;;;;;6230373;22;19919;-86
2023/04/25 12:27:46;;;;;;;;;;;;;;;;;;6214268;23;19915;-86
2023/04/25 12:30:18;;;;;;;;;;;;;;;;;;6211470;23;19962;-85
2023/04/25 12:32:57;;;;;;;;;;;;;;;;;;;;;
2023/04/25 12:36:10;;;;;;;;;;;;;;;;;;;;;
2023/04/25 12:55:14;;;;;;;;;;;;;;;;;;6172104;23;20257;-85
2023/04/25 13:25:33;;;;;;;;;;;;;;;;;;6168644;23;20332;-86
2023/04/25 13:31:07;;;;;;;;;;;;;;;;;;6174935;23;20348;-85
2023/04/25 13:33:39;;;;;;;;;;;;;;;;;;6177014;23;20324;-85
2023/04/25 13:36:08;;;;;;;;;;;;;;;;;;6148980;23;19927;-86
2023/04/25 13:38:47;;;;;;;;;;;;;;;;;;6149129;23;19916;-85
2023/04/25 13:41:18;;;;;;;;;;;;;;;;;;6143015;23;19975;-85
2023/04/25 13:49:57;;;;;;;;;;;;;;;;;;6209804;23;19957;-87
2023/04/25 13:52:41;;;;;;;;;;;;;;;;;;6151060;23;20075;-88
2023/04/25 13:55:26;;;;;;;;;;;;;;;;;;6180015;23;19924;-85
2023/04/25 13:58:01;;;;;;;;;;;;;;;;;;6151316;23;19923;-85
2023/04/25 14:00:31;;;;;;;;;;;;;;;;;;6149254;23;20239;-87
2023/04/25 14:03:06;;;;;;;;;;;;;;;;;;6173823;23;19926;-86
2023/04/25 14:24:09;;;;;;;;;;;;;;;;;;6250063;22;19923;-85
2023/04/25 15:00:19;;;;;;;;;;;;;;;;;;6267978;22;19923;-87
2023/04/25 15:02:45;;;;;;;;;;;;;;;;;;6238511;22;19915;-88
2023/04/25 15:05:11;;;;;;;;;;;;;;;;;;6234063;22;20403;-88
2023/04/25 15:07:47;;;;;;;;;;;;;;;;;;6236641;22;19919;-87
2023/04/25 15:18:02;;;;;;;;;;;;;;;;;;6269859;22;19923;-90
2023/04/25 15:20:29;;;;;;;;;;;;;;;;;;6216287;22;19925;-88
2023/04/25 15:23:29;;;;;;;;;;;;;;;;;;6241610;22;19929;-89
2023/04/25 16:12:47;;;;;;;;;;;;;;;;;;;;;
2023/04/25 16:15:22;;;;;;;;;;;;;;;;;;6237098;22;19969;-91
2023/04/25 16:17:51;;;;;;;;;;;;;;;;;;6215788;22;19919;-91
2023/04/25 16:20:17;;;;;;;;;;;;;;;;;;6210782;22;19919;-90
2023/04/25 16:22:43;;;;;;;;;;;;;;;;;;6214711;22;19927;-90
2023/04/25 16:25:17;;;;;;;;;;;;;;;;;;6212245;22;19919;-92
2023/04/25 16:27:43;;;;;;;;;;;;;;;;;;6215090;22;19915;-90
2023/04/25 16:30:09;;;;;;;;;;;;;;;;;;6212941;22;19984;-92
2023/04/25 16:32:35;;;;;;;;;;;;;;;;;;6214590;22;20338;-93
2023/04/25 16:38:16;;;;;;;;;;;;;;;;;;6148192;23;19921;-92
2023/04/25 16:40:42;;;;;;;;;;;;;;;;;;6118835;23;20415;-91
2023/04/25 16:43:08;;;;;;;;;;;;;;;;;;6176903;22;19919;-90
2023/04/25 16:48:08;;;;;;;;;;;;;;;;;;6263576;22;19919;-90
2023/04/25 16:50:52;;;;;;;;;;;;;;;;;;6241163;22;19973;-89
2023/04/25 17:05:04;;;;;;;;;;;;;;;;;;6266414;22;19923;-91
2023/04/25 17:07:31;;;;;;;;;;;;;;;;;;6213432;22;19919;-91
2023/04/25 17:09:57;;;;;;;;;;;;;;;;;;6210813;22;19923;-93
2023/04/25 17:12:23;;;;;;;;;;;;;;;;;;6212259;22;19957;-90
2023/04/25 17:14:49;;;;;;;;;;;;;;;;;;6214061;22;19926;-91
2023/04/25 17:17:17;;;;;;;;;;;;;;;;;;6237305;22;19925;-91
2023/04/25 17:19:43;;;;;;;;;;;;;;;;;;6211031;22;19939;-90
2023/04/25 17:22:12;;;;;;;;;;;;;;;;;;6208213;22;19919;-90
2023/04/25 17:24:39;;;;;;;;;;;;;;;;;;6213646;22;20336;-90
2023/04/25 17:27:05;;;;;;;;;;;;;;;;;;6212208;22;20400;-91
2023/04/25 17:29:32;;;;;;;;;;;;;;;;;;6237753;22;19923;-91
2023/04/25 17:31:58;;;;;;;;;;;;;;;;;;6210786;22;20328;-89
2023/04/25 17:58:26;;;;;;;;;;;;;;;;;;6272556;22;19930;-91
2023/04/25 18:03:55;;;;;;;;;;;;;;;;;;6272447;22;19957;-88
2023/04/25 18:06:21;;;;;;;;;;;;;;;;;;6260529;22;19916;-88
2023/04/25 18:11:57;;;;;;;;;;;;;;;;;;6250502;22;20030;-88
2023/04/25 18:14:24;;;;;;;;;;;;;;;;;;6204100;23;19958;-87
2023/04/25 18:16:50;;;;;;;;;;;;;;;;;;6180132;23;20222;-88
2023/04/25 18:19:20;;;;;;;;;;;;;;;;;;6176481;23;19923;-88
2023/04/25 18:34:55;;;;;;;;;;;;;;;;;;;;;
2023/04/25 18:43:44;;;;;;;;;;;;;;;;;;6237606;23;19919;-87
2023/04/25 18:46:54;;;;;;;;;;;;;;;;;;;;;
2023/04/25 18:49:28;;;;;;;;;;;;;;;;;;6135232;23;19937;-86
2023/04/25 18:52:26;;;;;;;;;;;;;;;;;;;;;
2023/04/25 18:55:43;;;;;;;;;;;;;;;;;;;;;
2023/04/25 19:05:20;;;;;;;;;;;;;;;;;;6210860;23;19955;-86
2023/04/25 19:11:11;;;;;;;;;;;;;;;;;;6032100;23;19978;-87
2023/04/25 19:20:31;;;;;;;;;;;;;;;;;;5895179;24;19919;-86
2023/04/25 19:23:24;;;;;;;;;;;;;;;;;;;;;
2023/04/25 19:25:56;;;;;;;;;;;;;;;;;;5911593;24;19923;-87
2023/04/25 19:28:22;;;;;;;;;;;;;;;;;;5893645;24;19922;-87
2023/04/25 19:33:55;;;;;;;;;;;;;;;;;;5964078;23;19996;-87
2023/04/25 19:42:35;;;;;;;;;;;;;;;;;;5986385;23;19923;-87
2023/04/25 19:45:06;;;;;;;;;;;;;;;;;;6069717;23;19999;-87
2023/04/25 19:47:32;;;;;;;;;;;;;;;;;;6116595;23;19927;-87
2023/04/25 19:49:59;;;;;;;;;;;;;;;;;;6150917;23;20424;-87
2023/04/25 19:52:33;;;;;;;;;;;;;;;;;;6157499;23;19915;-87
2023/04/25 19:55:02;;;;;;;;;;;;;;;;;;6152871;23;19919;-87
2023/04/25 19:57:32;;;;;;;;;;;;;;;;;;6157212;23;19928;-87
2023/04/25 19:59:58;;;;;;;;;;;;;;;;;;6152944;23;20356;-86
2023/04/25 20:02:25;;;;;;;;;;;;;;;;;;6155684;23;20585;-86
2023/04/25 20:04:53;;;;;;;;;;;;;;;;;;6149055;23;19920;-86
2023/04/25 20:07:23;;;;;;;;;;;;;;;;;;6156406;23;19945;-87
2023/04/25 20:09:55;;;;;;;;;;;;;;;;;;6178459;23;19974;-86
2023/04/25 20:12:21;;;;;;;;;;;;;;;;;;6176882;23;19991;-86
2023/04/25 20:14:50;;;;;;;;;;;;;;;;;;6156336;22;19923;-86
2023/04/25 20:17:16;;;;;;;;;;;;;;;;;;6179641;23;20061;-87
2023/04/25 20:53:59;;;;;;;;;;;;;;;;;;6273886;22;19923;-92
2023/04/25 20:56:40;;;;;;;;;;;;;;;;;;6257528;22;19994;-92
2023/04/25 20:59:14;;;;;;;;;;;;;;;;;;6219599;22;19915;-92
2023/04/25 21:01:59;;;;;;;;;;;;;;;;;;6240979;22;19916;-92
2023/04/25 21:04:37;;;;;;;;;;;;;;;;;;6223744;22;20226;-91
2023/04/25 21:07:11;;;;;;;;;;;;;;;;;;6214473;22;19926;-93
2023/04/25 21:09:42;;;;;;;;;;;;;;;;;;6213702;22;19923;-92
2023/04/25 21:12:16;;;;;;;;;;;;;;;;;;6210160;22;20321;-92
2023/04/25 21:14:53;;;;;;;;;;;;;;;;;;6214727;22;19919;-91
2023/04/25 21:17:22;;;;;;;;;;;;;;;;;;6214392;22;19923;-92
2023/04/25 21:19:51;;;;;;;;;;;;;;;;;;6169071;23;19924;-92
2023/04/25 21:22:28;;;;;;;;;;;;;;;;;;6147042;23;19932;-92
2023/04/25 21:25:04;;;;;;;;;;;;;;;;;;6144312;23;19920;-92
2023/04/25 21:27:39;;;;;;;;;;;;;;;;;;6135290;23;19925;-92
2023/04/25 21:30:18;;;;;;;;;;;;;;;;;;6115961;23;19921;-91
2023/04/25 21:33:07;;;;;;;;;;;;;;;;;;6119701;23;19921;-93
2023/04/25 21:35:36;;;;;;;;;;;;;;;;;;6117000;23;19920;-92
2023/04/25 21:44:11;;;;;;;;;;;;;;;;;;6081675;23;20179;-93
2023/04/25 21:58:13;;;;;;;;;;;;;;;;;;;;;
2023/04/25 22:13:46;;;;;;;;;;;;;;;;;;6272516;22;20540;-88
2023/04/25 22:25:36;;;;;;;;;;;;;;;;;;6112455;23;19988;-88
2023/04/25 22:34:27;;;;;;;;;;;;;;;;;;;;;
2023/04/25 22:37:39;;;;;;;;;;;;;;;;;;;;;
2023/04/25 22:40:46;;;;;;;;;;;;;;;;;;6124895;23;20031;-89
2023/04/25 22:43:46;;;;;;;;;;;;;;;;;;6056510;23;19921;-89
2023/04/25 22:46:21;;;;;;;;;;;;;;;;;;6052541;23;19936;-89
2023/04/25 22:55:41;;;;;;;;;;;;;;;;;;;;;
2023/04/25 22:58:32;;;;;;;;;;;;;;;;;;6041182;23;19920;-89
2023/04/25 23:04:07;;;;;;;;;;;;;;;;;;6047504;23;19921;-89
2023/04/25 23:07:07;;;;;;;;;;;;;;;;;;;;;
2023/04/25 23:19:58;;;;;;;;;;;;;;;;;;5795227;24;19924;-89
2023/04/25 23:22:54;;;;;;;;;;;;;;;;;;5923442;24;19979;-88
2023/04/25 23:34:48;;;;;;;;;;;;;;;;;;6109245;23;19919;-89
2023/04/25 23:40:45;;;;;;;;;;;;;;;;;;6087721;23;20338;-89
2023/04/25 23:47:04;;;;;;;;;;;;;;;;;;;;;
2023/04/25 23:49:46;;;;;;;;;;;;;;;;;;6084001;23;19922;-88
